createdAt,value
2018-07-19T00:01:17.580Z,83.50
2018-07-19T00:06:14.698Z,82.80
2018-07-19T00:08:43.353Z,82.30
2018-07-19T00:11:12.026Z,81.90
2018-07-19T00:13:40.657Z,81.70
2018-07-19T00:16:09.971Z,82.20
2018-07-19T00:18:38.596Z,82.50
2018-07-19T00:23:35.685Z,82.70
2018-07-19T00:26:04.334Z,83.00
2018-07-19T00:28:32.956Z,83.70
2018-07-19T00:31:01.568Z,83.90
2018-07-19T00:33:30.211Z,84.00
2018-07-19T00:35:58.819Z,83.80
2018-07-19T00:38:27.505Z,83.80
2018-07-19T00:40:56.192Z,84.10
2018-07-19T00:43:24.893Z,84.40
2018-07-19T00:45:53.561Z,83.60
2018-07-19T00:48:22.238Z,83.90
2018-07-19T00:50:50.910Z,84.80
2018-07-19T00:53:19.583Z,84.50
2018-07-19T00:58:16.786Z,83.40
2018-07-19T01:00:45.421Z,82.70
2018-07-19T01:08:11.113Z,81.30
2018-07-19T01:10:39.796Z,81.10
2018-07-19T01:13:08.520Z,80.80
2018-07-19T01:15:37.264Z,80.00
2018-07-19T01:18:06.404Z,79.40
2018-07-19T01:20:36.263Z,79.40
2018-07-19T01:23:04.965Z,79.90
2018-07-19T01:25:33.603Z,79.20
2018-07-19T01:28:02.253Z,79.10
2018-07-19T01:30:30.911Z,79.40
2018-07-19T01:32:59.555Z,78.20
2018-07-19T01:37:56.577Z,78.20
2018-07-19T01:40:25.249Z,78.50
2018-07-19T01:42:54.237Z,78.50
2018-07-19T01:45:22.927Z,78.50
2018-07-19T01:47:51.650Z,79.30
2018-07-19T01:50:20.363Z,80.10
2018-07-19T01:52:49.035Z,80.80
2018-07-19T01:55:17.685Z,81.30
2018-07-19T01:57:46.350Z,82.40
2018-07-19T02:00:15.117Z,82.60
2018-07-19T02:02:43.683Z,82.50
2018-07-19T02:05:12.313Z,81.70
2018-07-19T02:07:40.948Z,82.20
2018-07-19T02:10:09.611Z,83.00
2018-07-19T02:12:38.330Z,82.80
2018-07-19T02:17:35.529Z,79.60
2018-07-19T02:20:04.266Z,78.40
2018-07-19T02:25:01.446Z,77.20
2018-07-19T02:27:30.103Z,77.50
2018-07-19T02:29:58.823Z,78.20
2018-07-19T02:34:55.973Z,78.10
2018-07-19T02:37:24.691Z,77.80
2018-07-19T02:39:53.325Z,77.30
2018-07-19T02:42:21.975Z,78.40
2018-07-19T02:44:50.648Z,78.00
2018-07-19T02:47:19.286Z,78.50
2018-07-19T02:52:16.303Z,80.00
2018-07-19T02:54:44.986Z,80.70
2018-07-19T02:57:13.625Z,81.10
2018-07-19T02:59:42.276Z,80.60
2018-07-19T03:02:11.067Z,80.30
2018-07-19T03:04:39.756Z,80.60
2018-07-19T03:07:08.343Z,81.10
2018-07-19T03:09:36.986Z,81.40
2018-07-19T03:12:05.641Z,81.80
2018-07-19T03:17:02.756Z,83.00
2018-07-19T03:19:31.483Z,83.60
2018-07-19T03:24:28.590Z,84.30
2018-07-19T03:26:57.239Z,84.50
2018-07-19T03:29:25.898Z,84.80
2018-07-19T03:31:54.511Z,84.90
2018-07-19T03:34:23.136Z,85.00
2018-07-19T03:36:51.760Z,84.50
2018-07-19T03:41:48.969Z,81.90
2018-07-19T03:44:17.635Z,80.00
2018-07-19T03:46:46.261Z,79.30
2018-07-19T03:49:14.871Z,79.40
2018-07-19T03:51:43.548Z,79.90
2018-07-19T03:54:12.225Z,80.30
2018-07-19T03:56:40.830Z,80.40
2018-07-19T03:59:09.505Z,80.50
2018-07-19T04:01:38.131Z,80.00
2018-07-19T04:06:35.225Z,79.00
2018-07-19T04:09:05.361Z,79.40
2018-07-19T04:11:33.996Z,78.50
2018-07-19T04:16:31.018Z,79.50
2018-07-19T04:18:59.595Z,79.60
2018-07-19T04:21:28.303Z,79.80
2018-07-19T04:23:56.926Z,79.50
2018-07-19T04:26:25.570Z,80.50
2018-07-19T04:28:54.227Z,79.80
2018-07-19T04:31:22.831Z,79.00
2018-07-19T04:33:51.442Z,79.50
2018-07-19T04:38:48.470Z,79.00
2018-07-19T04:41:17.082Z,78.50
2018-07-19T04:43:45.785Z,78.50
2018-07-19T04:46:14.430Z,77.80
2018-07-19T04:48:43.055Z,77.30
2018-07-19T04:51:11.698Z,77.10
2018-07-19T04:53:40.347Z,78.10
2018-07-19T04:56:08.985Z,76.50
2018-07-19T05:01:06.295Z,75.10
2018-07-19T05:03:34.935Z,73.90
2018-07-19T05:06:03.515Z,74.40
2018-07-19T05:08:32.120Z,73.20
2018-07-19T05:11:00.796Z,73.20
2018-07-19T05:18:26.296Z,73.20
2018-07-19T05:20:54.910Z,74.50
2018-07-19T05:23:23.568Z,73.50
2018-07-19T05:25:52.165Z,71.40
2018-07-19T05:28:20.835Z,73.10
2018-07-19T05:30:49.581Z,72.70
2018-07-19T05:33:18.231Z,71.60
2018-07-19T05:38:15.450Z,70.70
2018-07-19T05:40:44.083Z,70.40
2018-07-19T05:43:12.918Z,69.40
2018-07-19T05:45:41.675Z,68.90
2018-07-19T05:53:07.764Z,67.10
2018-07-19T05:55:36.396Z,66.40
2018-07-19T05:58:05.205Z,65.40
2018-07-19T06:03:02.403Z,64.30
2018-07-19T06:05:31.154Z,64.10
2018-07-19T06:10:28.513Z,63.00
2018-07-19T06:15:25.938Z,64.30
2018-07-19T06:17:54.593Z,63.40
2018-07-19T06:22:51.780Z,63.20
2018-07-19T06:25:20.593Z,63.30
2018-07-19T06:27:49.274Z,63.90
2018-07-19T06:30:18.011Z,63.50
2018-07-19T06:32:46.806Z,62.30
2018-07-19T06:35:15.504Z,59.70
2018-07-19T06:37:44.226Z,58.70
2018-07-19T06:40:12.986Z,57.90
2018-07-19T06:42:41.668Z,59.30
2018-07-19T06:45:10.316Z,58.10
2018-07-19T06:50:07.738Z,57.60
2018-07-19T06:52:36.453Z,57.10
2018-07-19T06:55:05.630Z,56.00
2018-07-19T06:57:34.654Z,56.20
2018-07-19T07:02:33.233Z,56.80
2018-07-19T07:05:02.001Z,56.40
2018-07-19T07:07:30.816Z,56.40
2018-07-19T07:09:59.632Z,55.50
2018-07-19T07:12:28.242Z,54.80
2018-07-19T07:14:57.071Z,54.40
2018-07-19T07:17:25.731Z,54.10
2018-07-19T07:19:54.493Z,55.60
2018-07-19T07:22:23.264Z,55.10
2018-07-19T07:24:51.957Z,54.60
2018-07-19T07:27:20.739Z,55.10
2018-07-19T07:29:49.623Z,54.80
2018-07-19T07:34:46.859Z,53.30
2018-07-19T07:37:15.783Z,50.50
2018-07-19T07:44:42.165Z,52.90
2018-07-19T07:47:11.176Z,51.70
2018-07-19T07:49:40.009Z,50.10
2018-07-19T07:52:10.169Z,49.40
2018-07-19T07:54:39.194Z,50.70
2018-07-19T07:57:08.207Z,52.80
2018-07-19T07:59:36.933Z,52.60
2018-07-19T08:02:05.933Z,51.00
2018-07-19T08:04:34.663Z,53.00
2018-07-19T08:07:03.399Z,54.30
2018-07-19T08:09:32.111Z,52.70
2018-07-19T08:12:00.746Z,52.10
2018-07-19T08:16:57.958Z,52.40
2018-07-19T08:19:26.639Z,51.60
2018-07-19T08:21:55.543Z,50.60
2018-07-19T08:24:24.227Z,51.50
2018-07-19T08:26:52.873Z,50.30
2018-07-19T08:31:51.072Z,48.50
2018-07-19T08:36:48.368Z,45.80
2018-07-19T08:39:17.229Z,46.50
2018-07-19T08:44:18.226Z,47.00
2018-07-19T08:46:46.988Z,47.20
2018-07-19T08:49:15.776Z,45.00
2018-07-19T08:51:44.482Z,44.80
2018-07-19T08:54:13.178Z,45.20
2018-07-19T08:56:41.937Z,44.50
2018-07-19T08:59:10.626Z,45.20
2018-07-19T09:01:39.534Z,45.10
2018-07-19T09:04:08.196Z,41.10
2018-07-19T09:06:36.895Z,42.00
2018-07-19T09:09:08.566Z,42.00
2018-07-19T09:11:37.513Z,40.60
2018-07-19T09:14:06.387Z,42.00
2018-07-19T09:16:35.035Z,40.40
2018-07-19T09:19:03.912Z,37.40
2018-07-19T09:21:32.663Z,35.00
2018-07-19T09:24:01.475Z,35.70
2018-07-19T09:26:30.234Z,34.30
2018-07-19T09:28:58.998Z,34.50
2018-07-19T09:31:27.761Z,35.80
2018-07-19T09:33:56.549Z,31.90
2018-07-19T09:36:25.362Z,30.00
2018-07-19T09:38:54.208Z,31.00
2018-07-19T09:41:22.878Z,30.00
2018-07-19T09:43:53.881Z,29.80
2018-07-19T09:46:22.625Z,31.50
2018-07-19T09:48:51.362Z,31.50
2018-07-19T09:51:20.158Z,32.20
2018-07-19T09:53:51.311Z,31.70
2018-07-19T09:56:20.016Z,32.80
2018-07-19T09:58:48.786Z,33.60
2018-07-19T10:01:17.957Z,32.50
2018-07-19T10:03:47.761Z,32.30
2018-07-19T10:08:45.251Z,29.40
2018-07-19T10:11:14.191Z,29.50
2018-07-19T10:13:43.037Z,29.70
2018-07-19T10:16:11.878Z,28.90
2018-07-19T10:18:41.547Z,28.80
2018-07-19T10:21:10.200Z,28.40
2018-07-19T10:23:38.972Z,28.90
2018-07-19T10:26:07.624Z,28.40
2018-07-19T10:28:36.989Z,27.90
2018-07-19T10:31:06.208Z,28.50
2018-07-19T10:33:35.046Z,27.60
2018-07-19T10:36:03.713Z,28.80
2018-07-19T10:38:33.046Z,28.60
2018-07-19T10:41:01.823Z,29.20
2018-07-19T10:43:30.538Z,28.60
2018-07-19T10:45:59.227Z,28.20
2018-07-19T10:48:28.611Z,27.50
2018-07-19T10:50:57.374Z,28.30
2018-07-19T10:53:26.145Z,27.90
2018-07-19T10:55:54.867Z,26.90
2018-07-19T10:58:23.707Z,28.00
2018-07-19T11:00:52.313Z,27.20
2018-07-19T11:03:21.951Z,27.30
2018-07-19T11:05:51.523Z,27.90
2018-07-19T11:08:20.999Z,25.90
2018-07-19T11:10:49.826Z,26.60
2018-07-19T11:13:18.461Z,27.10
2018-07-19T11:15:47.164Z,27.60
2018-07-19T11:18:15.771Z,26.70
2018-07-19T11:20:44.424Z,23.60
2018-07-19T11:23:13.203Z,22.80
2018-07-19T11:25:41.934Z,24.80
2018-07-19T11:28:10.606Z,24.60
2018-07-19T11:30:39.304Z,22.00
2018-07-19T11:33:08.122Z,20.90
2018-07-19T11:35:36.933Z,20.50
2018-07-19T11:38:05.725Z,21.30
2018-07-19T11:40:35.346Z,21.20
2018-07-19T11:43:04.269Z,21.80
2018-07-19T11:45:33.540Z,23.30
2018-07-19T11:48:02.293Z,22.90
2018-07-19T11:50:31.113Z,23.10
2018-07-19T11:52:59.885Z,22.70
2018-07-19T11:55:28.710Z,23.30
2018-07-19T11:57:57.557Z,23.30
2018-07-19T12:02:55.226Z,22.20
2018-07-19T12:05:24.210Z,22.70
2018-07-19T12:07:52.964Z,23.60
2018-07-19T12:10:21.849Z,24.50
2018-07-19T12:12:50.969Z,23.50
2018-07-19T12:15:19.773Z,23.30
2018-07-19T12:17:48.641Z,23.30
2018-07-19T12:20:17.311Z,23.40
2018-07-19T12:22:46.911Z,22.80
2018-07-19T12:25:15.551Z,23.20
2018-07-19T12:27:44.335Z,22.60
2018-07-19T12:30:13.890Z,23.10
2018-07-19T12:32:42.622Z,22.30
2018-07-19T12:35:12.185Z,21.40
2018-07-19T12:37:41.050Z,21.90
2018-07-19T12:40:10.043Z,23.90
2018-07-19T12:42:39.260Z,23.50
2018-07-19T12:45:08.084Z,21.80
2018-07-19T12:47:36.865Z,21.30
2018-07-19T12:50:05.681Z,21.60
2018-07-19T12:52:34.910Z,22.10
2018-07-19T12:55:03.745Z,21.90
2018-07-19T12:57:32.531Z,22.10
2018-07-19T13:00:01.313Z,23.00
2018-07-19T13:02:31.808Z,23.30
2018-07-19T13:05:00.576Z,23.20
2018-07-19T13:07:29.628Z,22.90
2018-07-19T13:10:13.554Z,22.60
2018-07-19T13:12:42.693Z,21.60
2018-07-19T13:15:11.663Z,20.70
2018-07-19T13:17:40.328Z,20.00
2018-07-19T13:20:09.196Z,20.70
2018-07-19T13:22:37.988Z,21.60
2018-07-19T13:25:06.956Z,20.80
2018-07-19T13:27:35.751Z,21.10
2018-07-19T13:30:05.732Z,21.30
2018-07-19T13:32:34.463Z,22.70
2018-07-19T13:35:03.328Z,22.50
2018-07-19T13:37:32.076Z,23.30
2018-07-19T13:40:00.806Z,22.60
2018-07-19T13:42:29.583Z,22.80
2018-07-19T13:44:58.663Z,23.50
2018-07-19T13:47:27.461Z,23.90
2018-07-19T13:49:57.836Z,21.90
2018-07-19T13:52:43.315Z,21.80
2018-07-19T13:55:14.875Z,21.50
2018-07-19T13:57:43.793Z,22.60
2018-07-19T14:00:12.580Z,22.90
2018-07-19T14:02:41.203Z,22.80
2018-07-19T14:05:09.954Z,23.80
2018-07-19T14:07:38.619Z,24.50
2018-07-19T14:10:07.278Z,25.70
2018-07-19T14:12:35.969Z,26.10
2018-07-19T14:15:05.459Z,27.20
2018-07-19T14:17:34.008Z,27.40
2018-07-19T14:20:03.201Z,28.30
2018-07-19T14:22:31.929Z,28.10
2018-07-19T14:25:00.599Z,28.20
2018-07-19T14:29:57.651Z,28.40
2018-07-19T14:32:26.172Z,28.90
2018-07-19T14:34:54.736Z,28.30
2018-07-19T14:37:23.346Z,28.70
2018-07-19T14:39:52.253Z,28.50
2018-07-19T14:42:20.844Z,29.40
2018-07-19T14:44:49.426Z,30.20
2018-07-19T14:47:18.004Z,32.40
2018-07-19T14:49:48.551Z,32.70
2018-07-19T14:52:17.259Z,33.80
2018-07-19T14:57:14.334Z,37.00
2018-07-19T15:02:11.899Z,38.90
2018-07-19T15:04:40.650Z,38.40
2018-07-19T15:07:09.301Z,35.90
2018-07-19T15:09:38.026Z,33.30
2018-07-19T15:12:07.858Z,31.40
2018-07-19T15:14:36.471Z,31.10
2018-07-19T15:17:05.911Z,30.20
2018-07-19T15:19:35.506Z,30.50
2018-07-19T15:22:04.821Z,31.00
2018-07-19T15:24:33.460Z,34.30
2018-07-19T15:29:30.583Z,34.70
2018-07-19T15:31:59.176Z,34.40
2018-07-19T15:34:29.396Z,32.90
2018-07-19T15:36:58.796Z,32.00
2018-07-19T15:39:27.538Z,32.00
2018-07-19T15:41:56.185Z,31.50
2018-07-19T15:44:24.855Z,31.80
2018-07-19T15:46:55.051Z,32.50
2018-07-19T15:49:23.686Z,32.70
2018-07-19T15:51:53.208Z,31.90
2018-07-19T15:54:21.813Z,32.00
2018-07-19T15:56:50.463Z,32.80
2018-07-19T16:01:47.486Z,33.30
2018-07-19T16:04:16.131Z,33.70
2018-07-19T16:06:44.697Z,33.80
2018-07-19T16:09:14.253Z,32.90
2018-07-19T16:11:42.933Z,33.60
2018-07-19T16:14:11.478Z,33.30
2018-07-19T16:16:40.110Z,33.60
2018-07-19T16:19:08.670Z,34.20
2018-07-19T16:21:37.271Z,34.00
2018-07-19T16:24:06.138Z,33.40
2018-07-19T16:26:34.744Z,33.60
2018-07-19T16:29:03.336Z,34.20
2018-07-19T16:31:32.138Z,34.00
2018-07-19T16:34:00.729Z,34.30
2018-07-19T16:36:29.306Z,34.20
2018-07-19T16:38:57.911Z,34.40
2018-07-19T16:43:55.007Z,35.10
2018-07-19T16:46:23.619Z,34.00
2018-07-19T16:48:52.284Z,34.00
2018-07-19T16:51:20.866Z,33.40
2018-07-19T16:56:18.772Z,34.20
2018-07-19T16:58:47.541Z,34.60
2018-07-19T17:01:16.491Z,34.30
2018-07-19T17:06:14.059Z,35.00
2018-07-19T17:08:42.703Z,35.20
2018-07-19T17:11:11.327Z,36.60
2018-07-19T17:13:40.047Z,36.40
2018-07-19T17:16:08.724Z,36.60
2018-07-19T17:18:37.334Z,37.70
2018-07-19T17:21:06.009Z,37.30
2018-07-19T17:23:34.657Z,37.60
2018-07-19T17:28:31.914Z,36.80
2018-07-19T17:31:00.617Z,37.20
2018-07-19T17:33:29.238Z,37.40
2018-07-19T17:35:57.913Z,37.70
2018-07-19T17:38:26.668Z,37.80
2018-07-19T17:40:55.373Z,38.00
2018-07-19T17:43:24.056Z,38.20
2018-07-19T17:45:52.749Z,38.60
2018-07-19T17:48:21.403Z,38.80
2018-07-19T17:50:50.073Z,39.30
2018-07-19T17:53:18.751Z,38.80
2018-07-19T17:55:47.489Z,39.10
2018-07-19T17:58:16.226Z,39.40
2018-07-19T18:03:14.258Z,40.20
2018-07-19T18:05:42.988Z,40.90
2018-07-19T18:08:11.725Z,40.60
2018-07-19T18:10:40.493Z,42.70
2018-07-19T18:13:09.171Z,43.40
2018-07-19T18:15:38.018Z,43.60
2018-07-19T18:18:06.788Z,43.80
2018-07-19T18:20:35.481Z,42.20
2018-07-19T18:23:04.354Z,42.00
2018-07-19T18:25:33.148Z,42.50
2018-07-19T18:28:01.913Z,43.20
2018-07-19T18:32:59.910Z,43.00
2018-07-19T18:35:28.568Z,43.30
2018-07-19T18:37:57.879Z,43.10
2018-07-19T18:40:26.606Z,42.80
2018-07-19T18:42:55.348Z,42.40
2018-07-19T18:45:24.203Z,42.00
2018-07-19T18:47:53.951Z,40.50
2018-07-19T18:50:22.900Z,40.40
2018-07-19T18:52:52.064Z,39.90
2018-07-19T18:55:20.823Z,39.60
2018-07-19T18:57:49.520Z,39.70
2018-07-19T19:02:47.130Z,40.90
2018-07-19T19:05:16.499Z,42.70
2018-07-19T19:10:14.293Z,46.50
2018-07-19T19:15:14.520Z,49.90
2018-07-19T19:20:11.873Z,51.80
2018-07-19T19:22:40.758Z,52.60
2018-07-19T19:25:09.533Z,53.00
2018-07-19T19:27:38.355Z,51.90
2018-07-19T19:32:35.651Z,52.10
2018-07-19T19:35:05.953Z,54.00
2018-07-19T19:37:35.383Z,56.20
2018-07-19T19:40:05.590Z,51.90
2018-07-19T19:42:34.336Z,51.90
2018-07-19T19:45:03.451Z,49.10
2018-07-19T19:47:32.271Z,56.60
2018-07-19T19:50:01.101Z,56.60
2018-07-19T19:52:30.004Z,56.80
2018-07-19T19:54:58.686Z,56.90
2018-07-19T19:57:27.384Z,58.30
2018-07-19T20:02:25.179Z,59.40
2018-07-19T20:04:53.888Z,59.70
2018-07-19T20:07:22.683Z,60.10
2018-07-19T20:09:51.620Z,59.90
2018-07-19T20:12:20.469Z,60.60
2018-07-19T20:14:49.448Z,60.10
2018-07-19T20:17:18.280Z,60.60
2018-07-19T20:19:47.604Z,60.70
2018-07-19T20:24:45.540Z,61.00
2018-07-19T20:27:14.358Z,61.40
2018-07-19T20:29:43.189Z,61.90
2018-07-19T20:32:12.036Z,62.20
2018-07-19T20:34:40.846Z,62.90
2018-07-19T20:39:42.585Z,63.00
2018-07-19T20:42:11.384Z,63.60
2018-07-19T20:44:40.353Z,64.40
2018-07-19T20:47:10.288Z,64.60
2018-07-19T20:49:39.053Z,64.30
2018-07-19T20:52:08.592Z,64.20
2018-07-19T20:54:37.483Z,63.90
2018-07-19T20:57:06.447Z,64.50
2018-07-19T20:59:35.366Z,65.00
2018-07-19T21:02:04.246Z,65.70
2018-07-19T21:04:33.133Z,65.60
2018-07-19T21:07:01.959Z,65.90
2018-07-19T21:09:31.330Z,66.10
2018-07-19T21:12:00.101Z,65.70
2018-07-19T21:14:28.809Z,66.10
2018-07-19T21:16:57.640Z,66.80
2018-07-19T21:19:26.378Z,66.10
2018-07-19T21:21:55.199Z,66.30
2018-07-19T21:24:23.933Z,67.00
2018-07-19T21:26:52.563Z,67.20
2018-07-19T21:31:50.230Z,68.40
2018-07-19T21:34:19.120Z,69.10
2018-07-19T21:39:16.413Z,69.60
2018-07-19T21:46:42.429Z,69.20
2018-07-19T21:49:11.294Z,69.40
2018-07-19T21:51:40.092Z,69.60
2018-07-19T21:54:08.886Z,69.10
2018-07-19T21:56:37.654Z,69.50
2018-07-19T21:59:06.376Z,69.50
2018-07-19T22:01:39.621Z,69.80
2018-07-19T22:04:08.381Z,70.30
2018-07-19T22:11:36.468Z,71.10
2018-07-19T22:14:05.799Z,71.60
2018-07-19T22:16:34.677Z,72.00
2018-07-19T22:21:32.518Z,72.70
2018-07-19T22:24:01.369Z,73.10
2018-07-19T22:26:30.168Z,73.20
2018-07-19T22:28:58.883Z,73.50
2018-07-19T22:31:27.555Z,73.70
2018-07-19T22:33:56.271Z,72.80
2018-07-19T22:36:24.961Z,72.10
2018-07-19T22:38:53.595Z,71.50
2018-07-19T22:41:23.988Z,70.90
2018-07-19T22:43:52.722Z,70.50
2018-07-19T22:46:21.398Z,70.30
2018-07-19T22:48:50.103Z,71.10
2018-07-19T22:51:18.812Z,72.30
2018-07-19T22:53:47.523Z,73.40
2018-07-19T22:56:16.246Z,74.20
2018-07-19T22:58:45.448Z,74.70
2018-07-19T23:01:14.115Z,75.30
2018-07-19T23:03:42.765Z,76.00
2018-07-19T23:08:39.879Z,76.60
2018-07-19T23:11:08.520Z,76.90
2018-07-19T23:16:05.799Z,76.90
2018-07-19T23:21:03.016Z,76.90
2018-07-19T23:23:32.233Z,76.60
2018-07-19T23:26:00.895Z,76.30
2018-07-19T23:28:29.640Z,76.20
2018-07-19T23:30:58.378Z,75.60
2018-07-19T23:33:27.616Z,75.80
2018-07-19T23:36:31.511Z,76.10
2018-07-19T23:39:05.396Z,76.70
2018-07-19T23:41:39.076Z,78.80
2018-07-19T23:44:12.298Z,78.70
2018-07-19T23:46:44.883Z,79.30
2018-07-19T23:49:13.523Z,79.90
2018-07-19T23:51:42.266Z,80.00
2018-07-19T23:56:39.555Z,78.90
2018-07-19T23:59:08.174Z,77.90
